createdAt,value
2017-07-21T00:02:02.301Z,61.30
2017-07-21T00:04:28.530Z,60.40
2017-07-21T00:06:54.718Z,61.00
2017-07-21T00:09:20.934Z,60.60
2017-07-21T00:11:47.095Z,61.10
2017-07-21T00:14:13.275Z,61.80
2017-07-21T00:16:40.245Z,62.00
2017-07-21T00:19:06.429Z,61.90
2017-07-21T00:21:32.603Z,61.70
2017-07-21T00:23:58.742Z,61.30
2017-07-21T00:26:25.806Z,61.50
2017-07-21T00:28:51.978Z,61.30
2017-07-21T00:31:18.891Z,62.00
2017-07-21T00:33:45.114Z,61.50
2017-07-21T00:36:12.067Z,61.50
2017-07-21T00:38:38.265Z,61.20
2017-07-21T00:41:04.437Z,61.40
2017-07-21T00:43:30.583Z,61.50
2017-07-21T00:45:57.486Z,61.80
2017-07-21T00:48:23.681Z,61.70
2017-07-21T00:50:49.878Z,61.80
2017-07-21T00:53:17.170Z,61.80
2017-07-21T00:55:43.329Z,62.10
2017-07-21T00:58:09.502Z,62.80
2017-07-21T01:00:35.699Z,61.90
2017-07-21T01:03:01.899Z,62.00
2017-07-21T01:05:28.090Z,62.00
2017-07-21T01:07:54.251Z,62.20
2017-07-21T01:10:20.451Z,61.90
2017-07-21T01:12:46.621Z,62.50
2017-07-21T01:15:12.862Z,61.90
2017-07-21T01:17:39.035Z,62.10
2017-07-21T01:20:05.215Z,62.60
2017-07-21T01:22:32.145Z,61.80
2017-07-21T01:24:58.354Z,61.70
2017-07-21T01:27:24.539Z,62.30
2017-07-21T01:29:51.460Z,62.00
2017-07-21T01:32:17.639Z,61.40
2017-07-21T01:34:43.813Z,62.30
2017-07-21T01:37:10.195Z,62.40
2017-07-21T01:39:36.354Z,61.50
2017-07-21T01:42:02.539Z,61.80
2017-07-21T01:44:29.567Z,62.30
2017-07-21T01:46:56.182Z,61.70
2017-07-21T01:49:22.354Z,62.30
2017-07-21T01:51:48.532Z,62.10
2017-07-21T01:54:14.738Z,61.90
2017-07-21T01:56:40.975Z,61.80
2017-07-21T01:59:07.150Z,61.30
2017-07-21T02:01:34.102Z,62.80
2017-07-21T02:04:01.022Z,62.60
2017-07-21T02:06:27.201Z,62.40
2017-07-21T02:08:53.385Z,62.50
2017-07-21T02:11:19.609Z,62.30
2017-07-21T02:13:45.770Z,62.40
2017-07-21T02:16:12.695Z,62.80
2017-07-21T02:18:38.860Z,62.10
2017-07-21T02:21:05.112Z,62.10
2017-07-21T02:23:31.276Z,61.50
2017-07-21T02:25:58.225Z,62.20
2017-07-21T02:28:24.378Z,62.40
2017-07-21T02:30:50.539Z,62.30
2017-07-21T02:33:16.746Z,62.10
2017-07-21T02:35:42.939Z,62.10
2017-07-21T02:38:09.834Z,62.80
2017-07-21T02:40:36.006Z,62.10
2017-07-21T02:43:02.266Z,61.90
2017-07-21T02:45:28.434Z,62.50
2017-07-21T02:47:54.686Z,62.40
2017-07-21T02:50:20.880Z,62.10
2017-07-21T02:52:47.025Z,62.60
2017-07-21T02:55:13.191Z,63.10
2017-07-21T02:57:40.144Z,63.30
2017-07-21T03:00:07.046Z,63.40
2017-07-21T03:02:33.216Z,61.70
2017-07-21T03:05:00.160Z,62.90
2017-07-21T03:07:27.104Z,62.50
2017-07-21T03:09:53.629Z,62.50
2017-07-21T03:12:20.547Z,63.10
2017-07-21T03:14:46.709Z,62.20
2017-07-21T03:17:14.351Z,61.60
2017-07-21T03:19:40.581Z,62.50
2017-07-21T03:22:06.762Z,62.40
2017-07-21T03:24:32.941Z,62.50
2017-07-21T03:27:00.268Z,62.70
2017-07-21T03:29:26.428Z,63.10
2017-07-21T03:31:52.571Z,63.30
2017-07-21T03:34:19.133Z,63.30
2017-07-21T03:36:46.011Z,63.40
2017-07-21T03:39:12.226Z,63.00
2017-07-21T03:41:38.391Z,62.80
2017-07-21T03:44:20.246Z,62.90
2017-07-21T03:46:46.778Z,62.70
2017-07-21T03:49:12.944Z,62.50
2017-07-21T03:51:39.890Z,62.50
2017-07-21T03:54:06.072Z,63.00
2017-07-21T03:56:32.691Z,62.60
2017-07-21T03:58:58.896Z,62.40
2017-07-21T04:01:25.840Z,63.00
2017-07-21T04:03:52.726Z,63.30
2017-07-21T04:06:18.984Z,63.30
2017-07-21T04:08:45.192Z,64.00
2017-07-21T04:11:11.417Z,62.80
2017-07-21T04:13:37.638Z,63.10
2017-07-21T04:16:03.845Z,63.10
2017-07-21T04:18:30.782Z,63.50
2017-07-21T04:20:57.765Z,63.00
2017-07-21T04:23:23.954Z,63.00
2017-07-21T04:25:50.873Z,63.70
2017-07-21T04:28:17.070Z,63.10
2017-07-21T04:30:43.227Z,63.30
2017-07-21T04:33:09.418Z,63.10
2017-07-21T04:35:35.592Z,64.10
2017-07-21T04:38:01.775Z,63.00
2017-07-21T04:40:27.953Z,62.80
2017-07-21T04:42:54.115Z,62.40
2017-07-21T04:45:20.355Z,60.90
2017-07-21T04:47:46.580Z,60.20
2017-07-21T04:50:12.753Z,59.60
2017-07-21T04:52:38.932Z,59.80
2017-07-21T04:55:05.172Z,58.60
2017-07-21T04:57:31.358Z,58.70
2017-07-21T04:59:57.544Z,57.90
2017-07-21T05:02:23.729Z,58.90
2017-07-21T05:04:50.018Z,57.90
2017-07-21T05:07:16.205Z,57.90
2017-07-21T05:09:42.418Z,57.20
2017-07-21T05:12:09.368Z,57.50
2017-07-21T05:14:35.525Z,56.80
2017-07-21T05:17:01.713Z,57.20
2017-07-21T05:19:28.662Z,56.70
2017-07-21T05:21:55.618Z,56.60
2017-07-21T05:24:21.839Z,56.60
2017-07-21T05:26:48.782Z,56.30
2017-07-21T05:29:15.710Z,55.80
2017-07-21T05:31:41.886Z,55.80
2017-07-21T05:34:08.189Z,55.90
2017-07-21T05:36:35.148Z,54.70
2017-07-21T05:39:01.309Z,53.80
2017-07-21T05:41:27.498Z,53.50
2017-07-21T05:43:53.666Z,52.90
2017-07-21T05:46:19.822Z,52.90
2017-07-21T05:48:46.006Z,52.70
2017-07-21T05:51:12.243Z,51.20
2017-07-21T05:53:38.451Z,50.70
2017-07-21T05:56:04.621Z,51.40
2017-07-21T05:58:30.766Z,51.10
2017-07-21T06:00:56.898Z,50.20
2017-07-21T06:03:23.817Z,50.60
2017-07-21T06:05:50.050Z,50.00
2017-07-21T06:08:16.190Z,49.40
2017-07-21T06:10:42.378Z,50.00
2017-07-21T06:13:08.510Z,50.10
2017-07-21T06:15:34.673Z,49.30
2017-07-21T06:18:00.855Z,49.40
2017-07-21T06:20:27.786Z,49.10
2017-07-21T06:22:53.924Z,48.70
2017-07-21T06:25:20.482Z,48.30
2017-07-21T06:27:46.658Z,48.70
2017-07-21T06:30:13.638Z,49.40
2017-07-21T06:32:40.607Z,47.70
2017-07-21T06:35:06.798Z,48.20
2017-07-21T06:37:32.969Z,47.80
2017-07-21T06:39:59.184Z,48.10
2017-07-21T06:42:25.362Z,47.50
2017-07-21T06:44:52.257Z,47.30
2017-07-21T06:47:18.467Z,46.10
2017-07-21T06:49:44.656Z,47.30
2017-07-21T06:52:11.601Z,46.70
2017-07-21T06:54:37.784Z,48.40
2017-07-21T06:57:04.012Z,48.60
2017-07-21T06:59:30.314Z,46.40
2017-07-21T07:01:56.531Z,46.70
2017-07-21T07:04:23.408Z,46.20
2017-07-21T07:06:49.610Z,46.10
2017-07-21T07:09:15.836Z,45.80
2017-07-21T07:11:57.760Z,46.10
2017-07-21T07:14:24.704Z,45.20
2017-07-21T07:16:50.948Z,45.50
2017-07-21T07:19:17.878Z,43.70
2017-07-21T07:21:44.062Z,43.10
2017-07-21T07:24:10.337Z,43.30
2017-07-21T07:26:36.955Z,43.20
2017-07-21T07:29:03.141Z,43.30
2017-07-21T07:31:29.354Z,43.30
2017-07-21T07:33:55.545Z,43.30
2017-07-21T07:36:21.752Z,42.50
2017-07-21T07:38:48.425Z,42.10
2017-07-21T07:41:14.615Z,41.00
2017-07-21T07:43:40.886Z,40.30
2017-07-21T07:46:07.802Z,41.40
2017-07-21T07:48:34.776Z,39.60
2017-07-21T07:51:00.994Z,39.60
2017-07-21T07:53:28.745Z,39.50
2017-07-21T07:55:55.298Z,39.50
2017-07-21T07:58:21.560Z,38.60
2017-07-21T08:00:47.730Z,39.00
2017-07-21T08:03:15.046Z,37.50
2017-07-21T08:05:42.026Z,38.40
2017-07-21T08:10:36.845Z,36.90
2017-07-21T08:13:03.769Z,36.80
2017-07-21T08:15:30.038Z,36.80
2017-07-21T08:17:56.220Z,36.90
2017-07-21T08:20:22.405Z,36.30
2017-07-21T08:22:48.605Z,36.40
2017-07-21T08:25:15.526Z,36.90
2017-07-21T08:27:42.397Z,37.00
2017-07-21T08:30:09.310Z,37.70
2017-07-21T08:32:35.542Z,38.40
2017-07-21T08:35:01.770Z,38.90
2017-07-21T08:37:27.926Z,38.60
2017-07-21T08:39:54.827Z,39.30
2017-07-21T08:42:21.054Z,39.20
2017-07-21T08:44:47.324Z,36.90
2017-07-21T08:47:14.327Z,35.30
2017-07-21T08:49:40.541Z,35.30
2017-07-21T08:52:06.752Z,34.20
2017-07-21T08:54:32.938Z,35.00
2017-07-21T08:57:14.109Z,35.70
2017-07-21T08:59:41.032Z,34.50
2017-07-21T09:02:07.977Z,32.60
2017-07-21T09:04:34.775Z,35.60
2017-07-21T09:07:02.498Z,35.20
2017-07-21T09:09:28.694Z,33.10
2017-07-21T09:11:54.895Z,35.10
2017-07-21T09:14:21.881Z,34.60
2017-07-21T09:16:48.092Z,34.10
2017-07-21T09:19:14.308Z,33.40
2017-07-21T09:21:40.625Z,33.90
2017-07-21T09:24:07.627Z,35.00
2017-07-21T09:26:33.867Z,34.30
2017-07-21T09:29:00.058Z,35.10
2017-07-21T09:31:26.330Z,35.30
2017-07-21T09:33:52.547Z,35.70
2017-07-21T09:36:18.749Z,34.80
2017-07-21T09:38:44.941Z,36.40
2017-07-21T09:41:11.106Z,36.00
2017-07-21T09:43:37.315Z,36.00
2017-07-21T09:46:04.242Z,35.50
2017-07-21T09:48:30.505Z,33.60
2017-07-21T09:50:56.790Z,34.60
2017-07-21T09:53:22.979Z,35.90
2017-07-21T09:55:49.179Z,36.40
2017-07-21T09:58:16.145Z,37.70
2017-07-21T10:00:42.546Z,37.60
2017-07-21T10:03:09.478Z,37.20
2017-07-21T10:05:35.780Z,34.90
2017-07-21T10:08:02.461Z,34.70
2017-07-21T10:10:29.400Z,33.50
2017-07-21T10:12:56.359Z,34.60
2017-07-21T10:15:23.317Z,36.60
2017-07-21T10:17:49.514Z,35.20
2017-07-21T10:20:15.733Z,35.30
2017-07-21T10:22:41.963Z,37.20
2017-07-21T10:25:08.203Z,35.40
2017-07-21T10:27:34.407Z,35.50
2017-07-21T10:30:00.625Z,36.60
2017-07-21T10:32:26.814Z,36.90
2017-07-21T10:34:53.035Z,35.60
2017-07-21T10:37:19.963Z,33.00
2017-07-21T10:39:46.882Z,33.80
2017-07-21T10:42:13.083Z,33.80
2017-07-21T10:44:40.116Z,33.10
2017-07-21T10:47:06.405Z,32.00
2017-07-21T10:49:32.666Z,33.30
2017-07-21T10:52:01.934Z,34.60
2017-07-21T10:54:31.674Z,34.70
2017-07-21T10:57:13.602Z,35.40
2017-07-21T10:59:39.838Z,35.50
2017-07-21T11:02:06.035Z,34.90
2017-07-21T11:04:33.334Z,32.70
2017-07-21T11:07:00.504Z,34.30
2017-07-21T11:09:27.479Z,35.90
2017-07-21T11:11:54.425Z,33.70
2017-07-21T11:14:21.352Z,33.30
2017-07-21T11:16:47.556Z,32.70
2017-07-21T11:19:13.765Z,33.30
2017-07-21T11:21:39.940Z,32.90
2017-07-21T11:24:06.165Z,31.70
2017-07-21T11:26:32.361Z,33.10
2017-07-21T11:28:58.622Z,31.20
2017-07-21T11:31:24.839Z,32.20
2017-07-21T11:33:50.987Z,30.10
2017-07-21T11:36:18.615Z,30.00
2017-07-21T11:38:44.790Z,30.90
2017-07-21T11:41:11.719Z,31.90
2017-07-21T11:43:37.919Z,30.40
2017-07-21T11:46:04.065Z,32.20
2017-07-21T11:48:30.351Z,31.00
2017-07-21T11:50:56.561Z,31.80
2017-07-21T11:53:22.756Z,32.80
2017-07-21T11:55:48.908Z,33.90
2017-07-21T11:58:15.827Z,33.40
2017-07-21T12:00:42.036Z,33.50
2017-07-21T12:03:08.286Z,34.30
2017-07-21T12:05:50.064Z,33.20
2017-07-21T12:08:16.306Z,33.70
2017-07-21T12:10:42.980Z,30.70
2017-07-21T12:13:09.257Z,33.30
2017-07-21T12:15:35.449Z,32.80
2017-07-21T12:18:01.925Z,32.50
2017-07-21T12:20:28.133Z,33.80
2017-07-21T12:22:55.058Z,34.20
2017-07-21T12:25:21.231Z,31.90
2017-07-21T12:27:47.429Z,32.60
2017-07-21T12:30:13.640Z,34.20
2017-07-21T12:32:39.814Z,34.40
2017-07-21T12:35:06.004Z,34.70
2017-07-21T12:37:32.174Z,33.30
2017-07-21T12:39:58.410Z,33.40
2017-07-21T12:42:25.302Z,36.20
2017-07-21T12:44:52.044Z,36.10
2017-07-21T12:47:18.243Z,32.60
2017-07-21T12:49:45.196Z,33.00
2017-07-21T12:52:12.126Z,34.40
2017-07-21T12:54:39.107Z,35.60
2017-07-21T12:57:05.339Z,32.30
2017-07-21T12:59:31.498Z,31.90
2017-07-21T13:01:57.689Z,32.30
2017-07-21T13:04:24.626Z,34.40
2017-07-21T13:07:05.730Z,34.60
2017-07-21T13:09:46.801Z,36.80
2017-07-21T13:12:13.002Z,37.30
2017-07-21T13:14:39.234Z,36.20
2017-07-21T13:17:05.506Z,35.30
2017-07-21T13:19:32.126Z,35.20
2017-07-21T13:21:58.258Z,35.00
2017-07-21T13:24:24.414Z,35.80
2017-07-21T13:26:50.707Z,36.20
2017-07-21T13:29:17.617Z,36.00
2017-07-21T13:31:44.796Z,35.70
2017-07-21T13:34:11.029Z,34.80
2017-07-21T13:36:37.293Z,35.90
2017-07-21T13:39:03.595Z,34.60
2017-07-21T13:41:30.047Z,34.60
2017-07-21T13:43:56.655Z,34.80
2017-07-21T13:46:22.968Z,35.40
2017-07-21T13:48:50.070Z,35.00
2017-07-21T13:51:16.262Z,35.00
2017-07-21T13:53:42.408Z,34.80
2017-07-21T13:56:08.606Z,35.50
2017-07-21T13:58:35.568Z,36.60
2017-07-21T14:01:01.791Z,35.50
2017-07-21T14:03:27.984Z,35.70
2017-07-21T14:05:54.190Z,35.70
2017-07-21T14:08:20.374Z,35.70
2017-07-21T14:10:46.559Z,35.30
2017-07-21T14:13:12.768Z,36.00
2017-07-21T14:15:38.981Z,35.60
2017-07-21T14:18:05.204Z,35.70
2017-07-21T14:20:32.178Z,35.70
2017-07-21T14:22:58.380Z,35.60
2017-07-21T14:25:24.770Z,37.10
2017-07-21T14:27:51.147Z,36.60
2017-07-21T14:30:17.383Z,35.70
2017-07-21T14:32:43.585Z,35.20
2017-07-21T14:35:10.536Z,35.50
2017-07-21T14:37:37.062Z,36.70
2017-07-21T14:40:03.353Z,35.60
2017-07-21T14:42:29.561Z,36.50
2017-07-21T14:44:55.739Z,35.50
2017-07-21T14:47:22.691Z,36.10
2017-07-21T14:49:49.613Z,36.00
2017-07-21T14:52:15.830Z,36.00
2017-07-21T14:54:42.148Z,38.00
2017-07-21T14:57:08.391Z,38.80
2017-07-21T14:59:34.578Z,36.90
2017-07-21T15:02:01.999Z,38.00
2017-07-21T15:04:28.947Z,39.60
2017-07-21T15:06:56.373Z,37.40
2017-07-21T15:09:22.595Z,38.80
2017-07-21T15:11:48.764Z,39.10
2017-07-21T15:14:15.777Z,38.60
2017-07-21T15:16:41.985Z,37.80
2017-07-21T15:19:08.175Z,39.00
2017-07-21T15:21:35.091Z,39.30
2017-07-21T15:24:01.290Z,38.80
2017-07-21T15:26:27.473Z,40.20
2017-07-21T15:28:53.692Z,38.30
2017-07-21T15:31:20.649Z,39.60
2017-07-21T15:33:46.882Z,39.10
2017-07-21T15:36:13.256Z,39.40
2017-07-21T15:38:40.301Z,39.10
2017-07-21T15:41:06.576Z,39.00
2017-07-21T15:43:32.763Z,39.00
2017-07-21T15:45:58.963Z,38.50
2017-07-21T15:48:25.539Z,39.20
2017-07-21T15:50:51.739Z,38.90
2017-07-21T15:53:17.986Z,39.50
2017-07-21T15:55:44.206Z,39.30
2017-07-21T15:58:10.404Z,40.30
2017-07-21T16:00:36.644Z,38.80
2017-07-21T16:03:02.871Z,40.90
2017-07-21T16:05:29.095Z,39.30
2017-07-21T16:07:55.296Z,40.80
2017-07-21T16:10:21.496Z,39.40
2017-07-21T16:12:47.684Z,41.20
2017-07-21T16:15:13.920Z,40.10
2017-07-21T16:17:40.085Z,40.60
2017-07-21T16:20:06.287Z,41.10
2017-07-21T16:22:33.430Z,40.70
2017-07-21T16:24:59.808Z,41.30
2017-07-21T16:27:26.864Z,41.90
2017-07-21T16:29:53.086Z,41.00
2017-07-21T16:32:19.687Z,41.00
2017-07-21T16:34:45.874Z,41.90
2017-07-21T16:37:13.281Z,43.20
2017-07-21T16:39:39.549Z,41.40
2017-07-21T16:42:05.735Z,42.20
2017-07-21T16:44:31.929Z,41.50
2017-07-21T16:46:58.258Z,41.00
2017-07-21T16:49:24.937Z,41.00
2017-07-21T16:51:51.183Z,42.80
2017-07-21T16:54:17.472Z,42.90
2017-07-21T16:56:43.663Z,42.60
2017-07-21T16:59:10.230Z,43.10
2017-07-21T17:01:38.069Z,43.20
2017-07-21T17:04:05.039Z,42.60
2017-07-21T17:06:31.250Z,42.80
2017-07-21T17:08:58.202Z,42.90
2017-07-21T17:11:25.130Z,43.10
2017-07-21T17:13:51.413Z,41.20
2017-07-21T17:16:18.349Z,42.50
2017-07-21T17:18:44.578Z,43.60
2017-07-21T17:21:10.785Z,43.90
2017-07-21T17:23:37.348Z,43.60
2017-07-21T17:26:03.590Z,42.40
2017-07-21T17:28:30.700Z,45.40
2017-07-21T17:30:56.969Z,44.30
2017-07-21T17:33:23.211Z,43.90
2017-07-21T17:35:50.916Z,44.40
2017-07-21T17:38:17.198Z,43.80
2017-07-21T17:40:43.425Z,44.20
2017-07-21T17:43:09.635Z,45.30
2017-07-21T17:45:35.884Z,44.40
2017-07-21T17:48:02.101Z,44.80
2017-07-21T17:50:28.302Z,45.30
2017-07-21T17:52:54.585Z,46.20
2017-07-21T17:55:21.455Z,44.90
2017-07-21T17:57:49.183Z,46.10
2017-07-21T18:00:15.479Z,45.50
2017-07-21T18:02:41.705Z,46.20
2017-07-21T18:05:08.053Z,46.20
2017-07-21T18:07:34.210Z,45.30
2017-07-21T18:10:00.475Z,45.80
2017-07-21T18:12:27.442Z,47.50
2017-07-21T18:14:53.677Z,47.40
2017-07-21T18:17:19.843Z,46.30
2017-07-21T18:19:46.057Z,46.30
2017-07-21T18:22:12.246Z,46.90
2017-07-21T18:24:39.170Z,46.80
2017-07-21T18:27:05.380Z,46.90
2017-07-21T18:29:31.601Z,47.20
2017-07-21T18:31:57.824Z,46.90
2017-07-21T18:34:24.021Z,47.70
2017-07-21T18:36:50.235Z,47.20
2017-07-21T18:39:17.182Z,47.70
2017-07-21T18:41:43.350Z,47.10
2017-07-21T18:44:09.557Z,47.10
2017-07-21T18:46:35.776Z,47.80
2017-07-21T18:49:01.952Z,46.80
2017-07-21T18:51:28.155Z,47.70
2017-07-21T18:53:54.345Z,48.00
2017-07-21T18:56:21.346Z,48.40
2017-07-21T18:58:47.560Z,47.90
2017-07-21T19:01:13.727Z,48.60
2017-07-21T19:03:39.954Z,49.00
2017-07-21T19:06:06.255Z,48.50
2017-07-21T19:08:32.517Z,48.60
2017-07-21T19:10:58.690Z,48.80
2017-07-21T19:13:24.957Z,47.80
2017-07-21T19:15:51.293Z,48.90
2017-07-21T19:18:17.494Z,48.90
2017-07-21T19:20:43.701Z,50.20
2017-07-21T19:23:09.891Z,50.00
2017-07-21T19:25:36.130Z,50.20
2017-07-21T19:28:03.070Z,49.20
2017-07-21T19:30:29.271Z,49.50
2017-07-21T19:32:55.519Z,50.70
2017-07-21T19:35:21.694Z,50.70
2017-07-21T19:37:47.875Z,50.70
2017-07-21T19:40:15.058Z,51.40
2017-07-21T19:42:41.320Z,51.60
2017-07-21T19:45:07.527Z,51.70
2017-07-21T19:47:33.731Z,51.80
2017-07-21T19:50:00.666Z,53.00
2017-07-21T19:52:26.929Z,52.00
2017-07-21T19:54:53.245Z,52.20
2017-07-21T19:57:20.195Z,52.80
2017-07-21T19:59:47.153Z,53.20
2017-07-21T20:02:13.364Z,53.20
2017-07-21T20:04:39.592Z,52.60
2017-07-21T20:07:06.549Z,52.80
2017-07-21T20:09:32.769Z,52.80
2017-07-21T20:11:59.748Z,53.20
2017-07-21T20:14:25.951Z,53.20
2017-07-21T20:16:52.902Z,53.50
2017-07-21T20:19:19.089Z,52.60
2017-07-21T20:21:45.293Z,52.60
2017-07-21T20:24:11.572Z,52.40
2017-07-21T20:26:38.199Z,52.40
2017-07-21T20:29:04.427Z,52.20
2017-07-21T20:31:30.690Z,52.50
2017-07-21T20:33:57.036Z,52.60
2017-07-21T20:36:24.097Z,52.70
2017-07-21T20:38:50.321Z,52.60
2017-07-21T20:41:16.541Z,52.30
2017-07-21T20:43:42.767Z,53.10
2017-07-21T20:46:08.989Z,52.20
2017-07-21T20:48:35.260Z,52.30
2017-07-21T20:51:01.465Z,52.70
2017-07-21T20:53:27.750Z,52.50
2017-07-21T20:55:54.693Z,53.40
2017-07-21T20:58:22.007Z,52.60
2017-07-21T21:00:48.188Z,52.10
2017-07-21T21:03:18.451Z,52.70
2017-07-21T21:05:45.049Z,52.40
2017-07-21T21:08:12.116Z,52.70
2017-07-21T21:10:38.315Z,52.30
2017-07-21T21:13:05.653Z,52.30
2017-07-21T21:15:31.859Z,52.30
2017-07-21T21:17:58.827Z,52.40
2017-07-21T21:20:25.355Z,52.20
2017-07-21T21:22:51.602Z,52.30
2017-07-21T21:25:17.860Z,52.30
2017-07-21T21:27:44.015Z,52.70
2017-07-21T21:30:10.594Z,52.90
2017-07-21T21:32:36.850Z,52.60
2017-07-21T21:35:03.797Z,53.30
2017-07-21T21:37:30.754Z,53.50
2017-07-21T21:39:56.963Z,52.90
2017-07-21T21:42:23.885Z,54.10
2017-07-21T21:44:50.076Z,52.80
2017-07-21T21:47:16.277Z,53.00
2017-07-21T21:49:42.453Z,53.00
2017-07-21T21:52:08.667Z,53.60
2017-07-21T21:54:34.843Z,52.60
2017-07-21T21:57:01.739Z,53.90
2017-07-21T21:59:27.929Z,53.00
2017-07-21T22:01:54.878Z,53.60
2017-07-21T22:04:21.057Z,53.50
2017-07-21T22:06:48.236Z,54.70
2017-07-21T22:09:14.489Z,53.40
2017-07-21T22:11:40.826Z,53.00
2017-07-21T22:14:07.079Z,53.70
2017-07-21T22:16:33.253Z,53.80
2017-07-21T22:19:00.236Z,54.30
2017-07-21T22:21:26.457Z,53.80
2017-07-21T22:23:52.659Z,55.10
2017-07-21T22:26:19.645Z,57.30
2017-07-21T22:28:46.780Z,57.70
2017-07-21T22:31:13.064Z,58.20
2017-07-21T22:33:41.911Z,58.80
2017-07-21T22:36:08.163Z,60.50
2017-07-21T22:38:34.508Z,61.60
2017-07-21T22:41:00.867Z,62.50
2017-07-21T22:43:27.115Z,62.70
2017-07-21T22:45:54.911Z,63.30
2017-07-21T22:48:21.646Z,61.50
2017-07-21T22:50:48.128Z,63.80
2017-07-21T22:53:15.096Z,64.80
2017-07-21T22:55:42.060Z,65.10
2017-07-21T22:58:08.254Z,66.10
2017-07-21T23:00:35.232Z,66.80
2017-07-21T23:03:01.399Z,67.70
2017-07-21T23:05:27.644Z,67.50
2017-07-21T23:07:53.921Z,68.20
2017-07-21T23:10:20.114Z,69.00
2017-07-21T23:12:46.701Z,68.50
2017-07-21T23:15:15.587Z,68.40
2017-07-21T23:17:42.200Z,68.90
2017-07-21T23:20:09.225Z,70.00
2017-07-21T23:22:36.182Z,70.50
2017-07-21T23:25:02.385Z,70.50
2017-07-21T23:27:29.618Z,71.80
2017-07-21T23:29:55.795Z,71.60
2017-07-21T23:32:22.770Z,71.30
2017-07-21T23:34:49.057Z,71.60
2017-07-21T23:37:15.232Z,72.40
2017-07-21T23:39:41.433Z,72.30
2017-07-21T23:42:08.390Z,72.50
2017-07-21T23:44:35.394Z,73.30
2017-07-21T23:47:01.562Z,72.60
2017-07-21T23:49:28.503Z,73.10
2017-07-21T23:51:55.457Z,72.80
2017-07-21T23:54:22.389Z,72.50
2017-07-21T23:56:48.949Z,72.50
2017-07-21T23:59:15.178Z,72.60
